createdAt,value
2018-12-25T00:01:01.876Z,14.93
2018-12-25T00:03:31.679Z,14.57
2018-12-25T00:06:02.381Z,15.18
2018-12-25T00:08:32.600Z,14.97
2018-12-25T00:11:02.709Z,14.00
2018-12-25T00:13:32.597Z,14.10
2018-12-25T00:16:02.705Z,15.15
2018-12-25T00:18:32.691Z,15.43
2018-12-25T00:21:04.252Z,14.73
2018-12-25T00:23:34.430Z,15.10
2018-12-25T00:26:04.365Z,13.90
2018-12-25T00:28:34.473Z,15.40
2018-12-25T00:31:04.362Z,14.27
2018-12-25T00:33:34.192Z,15.80
2018-12-25T00:36:04.020Z,14.80
2018-12-25T00:38:33.885Z,14.73
2018-12-25T00:41:04.285Z,15.63
2018-12-25T00:43:36.624Z,14.80
2018-12-25T00:46:07.737Z,15.50
2018-12-25T00:48:37.880Z,14.70
2018-12-25T00:51:07.660Z,15.03
2018-12-25T00:53:37.569Z,15.30
2018-12-25T00:56:07.510Z,14.93
2018-12-25T00:58:37.341Z,15.23
2018-12-25T01:01:07.229Z,14.80
2018-12-25T01:03:37.078Z,14.20
2018-12-25T01:06:06.914Z,15.93
2018-12-25T01:08:37.137Z,15.03
2018-12-25T01:11:07.559Z,15.20
2018-12-25T01:13:37.401Z,15.70
2018-12-25T01:16:07.309Z,16.17
2018-12-25T01:18:38.597Z,15.87
2018-12-25T01:21:08.849Z,17.00
2018-12-25T01:23:39.509Z,16.43
2018-12-25T01:26:09.360Z,15.80
2018-12-25T01:28:39.736Z,15.57
2018-12-25T01:31:10.806Z,15.30
2018-12-25T01:33:40.550Z,16.30
2018-12-25T01:36:10.401Z,15.90
2018-12-25T01:38:41.184Z,15.63
2018-12-25T01:41:11.012Z,15.20
2018-12-25T01:43:41.130Z,16.70
2018-12-25T01:46:10.992Z,15.00
2018-12-25T01:48:40.827Z,15.73
2018-12-25T01:51:13.328Z,16.70
2018-12-25T01:53:43.409Z,15.57
2018-12-25T01:56:13.546Z,16.10
2018-12-25T01:58:43.384Z,16.33
2018-12-25T02:01:13.872Z,17.80
2018-12-25T02:03:43.780Z,16.97
2018-12-25T02:06:13.604Z,18.30
2018-12-25T02:08:44.486Z,19.98
2018-12-25T02:12:09.996Z,19.27
2018-12-25T02:14:51.272Z,18.53
2018-12-25T02:20:48.714Z,18.80
2018-12-25T02:23:29.813Z,18.12
2018-12-25T02:26:11.410Z,19.37
2018-12-25T02:32:10.554Z,18.70
2018-12-25T02:34:51.993Z,19.77
2018-12-25T02:37:32.997Z,17.48
2018-12-25T02:43:52.025Z,17.67
2018-12-25T02:49:50.398Z,16.77
2018-12-25T02:52:31.953Z,16.33
2018-12-25T02:55:13.348Z,16.17
2018-12-25T03:01:11.018Z,14.30
2018-12-25T03:04:11.038Z,15.57
2018-12-25T03:06:52.245Z,15.43
2018-12-25T03:09:51.980Z,15.48
2018-12-25T03:12:33.009Z,15.10
2018-12-25T03:15:14.418Z,16.33
2018-12-25T03:17:55.549Z,16.30
2018-12-25T03:20:55.810Z,15.80
2018-12-25T03:26:40.799Z,16.57
2018-12-25T03:38:47.676Z,17.43
2018-12-25T03:48:12.966Z,18.10
2018-12-25T03:51:13.790Z,18.20
2018-12-25T03:53:54.951Z,17.30
2018-12-25T03:59:41.071Z,18.20
2018-12-25T04:02:22.542Z,18.77
2018-12-25T04:05:03.189Z,17.13
2018-12-25T04:10:48.548Z,17.57
2018-12-25T04:19:58.557Z,19.57
2018-12-25T04:28:48.717Z,19.43
2018-12-25T04:34:12.256Z,19.33
2018-12-25T04:36:53.439Z,18.87
2018-12-25T04:39:36.696Z,17.97
2018-12-25T04:45:36.205Z,18.45
2018-12-25T04:57:43.858Z,16.17
2018-12-25T05:00:43.925Z,16.24
2018-12-25T05:06:33.917Z,17.32
2018-12-25T05:09:15.101Z,15.43
2018-12-25T05:11:56.253Z,17.00
2018-12-25T05:14:55.901Z,16.20
2018-12-25T05:17:37.554Z,15.40
2018-12-25T05:20:20.425Z,16.30
2018-12-25T05:23:01.407Z,15.63
2018-12-25T05:31:55.268Z,15.60
2018-12-25T05:37:40.677Z,14.40
2018-12-25T05:40:22.216Z,17.42
2018-12-25T05:43:21.981Z,16.20
2018-12-25T05:46:02.881Z,16.93
2018-12-25T05:51:59.957Z,17.13
2018-12-25T05:55:00.020Z,17.20
2018-12-25T06:10:01.726Z,16.33
2018-12-25T06:19:09.636Z,15.90
2018-12-25T06:31:21.435Z,14.80
2018-12-25T06:37:39.915Z,15.10
2018-12-25T06:40:21.297Z,17.70
2018-12-25T06:46:06.182Z,16.00
2018-12-25T06:48:49.899Z,16.87
2018-12-25T06:57:40.330Z,18.12
2018-12-25T07:03:25.305Z,16.90
2018-12-25T07:15:33.286Z,18.90
2018-12-25T07:18:14.809Z,17.53
2018-12-25T07:24:02.383Z,18.60
2018-12-25T07:38:50.763Z,16.53
2018-12-25T08:01:47.389Z,14.37
2018-12-25T08:08:10.822Z,15.80
2018-12-25T08:11:16.957Z,14.10
2018-12-25T08:17:35.597Z,13.70
2018-12-25T08:23:34.176Z,13.97
2018-12-25T08:26:15.216Z,13.93
2018-12-25T08:28:56.664Z,14.93
2018-12-25T08:31:37.982Z,13.30
2018-12-25T08:34:19.429Z,13.87
2018-12-25T08:37:01.142Z,14.33
2018-12-25T08:40:00.944Z,15.07
2018-12-25T08:42:42.107Z,14.73
2018-12-25T08:45:42.185Z,15.10
2018-12-25T08:48:23.487Z,14.80
2018-12-25T08:51:04.782Z,14.23
2018-12-25T09:00:13.417Z,14.83
2018-12-25T09:12:27.649Z,15.93
2018-12-25T09:18:28.013Z,14.65
2018-12-25T09:27:22.401Z,15.20
2018-12-25T09:30:03.190Z,15.57
2018-12-25T09:38:57.160Z,15.90
2018-12-25T09:41:37.883Z,15.75
2018-12-25T09:44:19.345Z,14.50
2018-12-25T09:46:59.258Z,14.63
2018-12-25T09:53:16.094Z,15.47
2018-12-25T09:55:57.133Z,14.90
2018-12-25T09:58:38.386Z,15.70
2018-12-25T10:01:19.304Z,15.47
2018-12-25T10:04:00.329Z,14.03
2018-12-25T10:06:41.491Z,14.57
2018-12-25T10:09:22.675Z,15.67
2018-12-25T10:14:43.273Z,15.30
2018-12-25T10:20:43.944Z,14.50
2018-12-25T10:23:25.341Z,14.60
2018-12-25T10:26:07.121Z,14.60
2018-12-25T10:28:48.118Z,13.83
2018-12-25T10:31:29.849Z,15.60
2018-12-25T10:34:10.984Z,16.50
2018-12-25T10:36:52.781Z,16.63
2018-12-25T10:39:33.704Z,16.20
2018-12-25T10:42:14.537Z,16.35
2018-12-25T10:48:12.626Z,17.40
2018-12-25T11:00:39.847Z,16.20
2018-12-25T11:18:35.142Z,17.33
2018-12-25T11:25:21.196Z,17.03
2018-12-25T11:32:24.841Z,18.20
2018-12-25T11:35:47.985Z,14.63
2018-12-25T11:41:50.965Z,14.23
2018-12-25T11:47:42.795Z,20.27
2018-12-25T11:50:24.330Z,25.92
2018-12-25T11:53:05.206Z,17.33
2018-12-25T11:59:05.926Z,26.83
2018-12-25T12:05:06.083Z,22.60
2018-12-25T12:07:47.070Z,13.83
2018-12-25T12:10:27.692Z,15.35
2018-12-25T12:32:07.210Z,18.17
2018-12-25T12:34:55.997Z,18.97
2018-12-25T12:37:43.987Z,16.40
2018-12-25T12:46:32.078Z,15.90
2018-12-25T12:49:55.837Z,15.80
2018-12-25T12:52:45.665Z,18.50
2018-12-25T12:55:34.601Z,17.92
2018-12-25T13:07:06.478Z,19.70
2018-12-25T13:16:17.281Z,14.00
2018-12-25T13:19:23.595Z,17.43
2018-12-25T13:34:22.249Z,14.17
2018-12-25T13:37:10.730Z,13.47
2018-12-25T13:39:59.224Z,13.90
2018-12-25T13:48:30.684Z,16.30
2018-12-25T14:03:04.165Z,20.93
2018-12-25T14:05:45.227Z,16.43
2018-12-25T14:08:27.035Z,15.55
2018-12-25T14:14:26.261Z,16.10
2018-12-25T14:23:51.324Z,18.97
2018-12-25T14:26:33.960Z,18.60
2018-12-25T14:29:16.026Z,17.20
2018-12-25T14:31:56.995Z,18.10
2018-12-25T14:34:38.197Z,17.52
2018-12-25T14:37:19.372Z,25.40
2018-12-25T14:40:00.345Z,32.80
2018-12-25T14:42:41.798Z,20.52
2018-12-25T14:45:23.070Z,17.50
2018-12-25T14:51:41.846Z,17.03
2018-12-25T14:58:04.603Z,16.30
2018-12-25T15:00:45.892Z,13.38
2018-12-25T15:03:46.689Z,14.63
2018-12-25T15:09:45.966Z,17.05
2018-12-25T15:12:27.837Z,20.60
2018-12-25T15:15:34.706Z,19.63
2018-12-25T15:22:03.682Z,18.47
2018-12-25T15:27:40.934Z,15.65
2018-12-25T15:36:31.902Z,18.43
2018-12-25T15:42:14.833Z,18.00
2018-12-25T15:58:59.285Z,14.37
2018-12-25T16:01:48.110Z,19.03
2018-12-25T16:04:35.988Z,20.10
2018-12-25T16:14:01.226Z,15.90
2018-12-25T16:19:24.617Z,14.87
2018-12-25T16:22:06.081Z,15.67
2018-12-25T16:24:47.194Z,14.60
2018-12-25T16:27:27.413Z,19.77
2018-12-25T16:30:33.992Z,21.30
2018-12-25T16:33:59.601Z,15.83
2018-12-25T16:36:48.166Z,16.27
2018-12-25T16:46:39.726Z,16.27
2018-12-25T16:48:56.677Z,17.03
2018-12-25T16:52:01.883Z,18.32
2018-12-25T16:54:37.406Z,22.37
2018-12-25T16:57:26.180Z,19.60
2018-12-25T17:00:14.663Z,20.10
2018-12-25T17:03:03.151Z,19.57
2018-12-25T17:06:28.622Z,19.07
2018-12-25T17:18:37.029Z,22.95
2018-12-25T17:21:18.025Z,18.53
2018-12-25T17:24:02.315Z,17.60
2018-12-25T17:26:41.838Z,20.13
2018-12-25T17:32:29.681Z,22.30
2018-12-25T17:41:19.981Z,20.47
2018-12-25T17:44:20.068Z,20.90
2018-12-25T17:47:20.082Z,23.03
2018-12-25T17:50:01.319Z,23.67
2018-12-25T17:52:42.133Z,23.50
2018-12-25T18:40:37.385Z,26.27
2018-12-25T18:43:18.764Z,27.00
2018-12-25T18:52:26.074Z,28.87
2018-12-25T18:55:07.581Z,30.70
2018-12-25T19:03:56.706Z,33.40
2018-12-25T19:12:59.220Z,33.03
2018-12-25T19:15:40.049Z,31.45
2018-12-25T19:18:40.504Z,30.90
2018-12-25T19:21:21.706Z,39.97
2018-12-25T19:24:02.359Z,38.00
2018-12-25T19:26:43.045Z,31.30
2018-12-25T19:29:24.290Z,31.07
2018-12-25T20:05:29.436Z,38.65
2018-12-25T20:11:29.997Z,50.40
2018-12-25T20:14:11.077Z,53.83
2018-12-25T20:16:52.081Z,53.53
2018-12-25T20:19:33.058Z,46.50
2018-12-25T20:22:14.921Z,44.00
2018-12-25T20:24:55.984Z,42.97
2018-12-25T20:27:37.346Z,42.00
2018-12-25T20:30:19.233Z,43.15
2018-12-25T20:33:00.101Z,42.50
2018-12-25T20:35:41.552Z,38.40
2018-12-25T20:38:23.216Z,39.20
2018-12-25T20:41:04.230Z,39.77
2018-12-25T20:43:45.026Z,41.40
2018-12-25T20:46:26.323Z,41.00
2018-12-25T20:49:07.853Z,39.57
2018-12-25T20:51:48.876Z,44.47
2018-12-25T20:54:30.497Z,44.40
2018-12-25T21:00:31.026Z,39.77
2018-12-25T21:47:41.293Z,36.37
2018-12-25T22:15:23.586Z,35.23
